sensor_id;sensor_type;location;lat;lon;timestamp;temperature;humidity
42715;DHT22;28351;51.480;5.706;2023-04-24T00:00:20;9.90;99.90
42715;DHT22;28351;51.480;5.706;2023-04-24T00:02:48;9.90;99.90
42715;DHT22;28351;51.480;5.706;2023-04-24T00:05:14;9.90;99.90
42715;DHT22;28351;51.480;5.706;2023-04-24T00:07:44;9.90;99.90
42715;DHT22;28351;51.480;5.706;2023-04-24T00:10:11;9.90;99.90
42715;DHT22;28351;51.480;5.706;2023-04-24T00:12:37;9.90;99.90
42715;DHT22;28351;51.480;5.706;2023-04-24T00:15:04;9.90;99.90
42715;DHT22;28351;51.480;5.706;2023-04-24T00:17:32;9.80;99.90
42715;DHT22;28351;51.480;5.706;2023-04-24T00:19:57;9.90;99.90
42715;DHT22;28351;51.480;5.706;2023-04-24T00:22:27;9.90;99.90
42715;DHT22;28351;51.480;5.706;2023-04-24T00:24:56;9.90;99.90
42715;DHT22;28351;51.480;5.706;2023-04-24T00:27:22;9.80;99.90
42715;DHT22;28351;51.480;5.706;2023-04-24T00:29:50;9.80;99.90
42715;DHT22;28351;51.480;5.706;2023-04-24T00:32:16;9.90;99.90
42715;DHT22;28351;51.480;5.706;2023-04-24T00:34:43;9.90;99.90
42715;DHT22;28351;51.480;5.706;2023-04-24T00:37:08;9.80;99.90
42715;DHT22;28351;51.480;5.706;2023-04-24T00:39:34;9.80;99.90
42715;DHT22;28351;51.480;5.706;2023-04-24T00:41:59;9.80;99.90
42715;DHT22;28351;51.480;5.706;2023-04-24T00:44:26;9.80;99.90
42715;DHT22;28351;51.480;5.706;2023-04-24T00:46:54;9.80;99.90
42715;DHT22;28351;51.480;5.706;2023-04-24T00:49:23;9.80;99.90
42715;DHT22;28351;51.480;5.706;2023-04-24T00:51:49;9.80;99.90
42715;DHT22;28351;51.480;5.706;2023-04-24T00:54:16;9.80;99.90
42715;DHT22;28351;51.480;5.706;2023-04-24T00:56:43;9.80;99.90
42715;DHT22;28351;51.480;5.706;2023-04-24T00:59:10;9.80;99.90
42715;DHT22;28351;51.480;5.706;2023-04-24T01:01:36;9.70;99.90
42715;DHT22;28351;51.480;5.706;2023-04-24T01:04:02;9.60;99.90
42715;DHT22;28351;51.480;5.706;2023-04-24T01:06:29;9.60;99.90
42715;DHT22;28351;51.480;5.706;2023-04-24T01:08:57;9.60;99.90
42715;DHT22;28351;51.480;5.706;2023-04-24T01:11:25;9.60;99.90
42715;DHT22;28351;51.480;5.706;2023-04-24T01:13:51;9.60;99.90
42715;DHT22;28351;51.480;5.706;2023-04-24T01:16:18;9.50;99.90
42715;DHT22;28351;51.480;5.706;2023-04-24T01:18:52;9.50;99.90
42715;DHT22;28351;51.480;5.706;2023-04-24T01:21:18;9.40;99.90
42715;DHT22;28351;51.480;5.706;2023-04-24T01:23:45;9.40;99.90
42715;DHT22;28351;51.480;5.706;2023-04-24T01:26:12;9.40;99.90
42715;DHT22;28351;51.480;5.706;2023-04-24T01:28:38;9.40;99.90
42715;DHT22;28351;51.480;5.706;2023-04-24T01:31:04;9.50;99.90
42715;DHT22;28351;51.480;5.706;2023-04-24T01:33:29;9.40;99.90
42715;DHT22;28351;51.480;5.706;2023-04-24T01:35:55;9.40;99.90
42715;DHT22;28351;51.480;5.706;2023-04-24T01:38:21;9.40;99.90
42715;DHT22;28351;51.480;5.706;2023-04-24T01:40:46;9.40;99.90
42715;DHT22;28351;51.480;5.706;2023-04-24T01:43:13;9.40;99.90
42715;DHT22;28351;51.480;5.706;2023-04-24T01:45:38;9.40;99.90
42715;DHT22;28351;51.480;5.706;2023-04-24T01:48:07;9.40;99.90
42715;DHT22;28351;51.480;5.706;2023-04-24T01:50:32;9.40;99.90
42715;DHT22;28351;51.480;5.706;2023-04-24T01:52:58;9.40;99.90
42715;DHT22;28351;51.480;5.706;2023-04-24T01:55:24;9.40;99.90
42715;DHT22;28351;51.480;5.706;2023-04-24T01:57:50;9.40;99.90
42715;DHT22;28351;51.480;5.706;2023-04-24T02:00:17;9.30;99.90
42715;DHT22;28351;51.480;5.706;2023-04-24T02:02:43;9.40;99.90
42715;DHT22;28351;51.480;5.706;2023-04-24T02:05:08;9.40;99.90
42715;DHT22;28351;51.480;5.706;2023-04-24T02:07:35;9.40;99.90
42715;DHT22;28351;51.480;5.706;2023-04-24T02:10:00;9.40;99.90
42715;DHT22;28351;51.480;5.706;2023-04-24T02:12:26;9.40;99.90
42715;DHT22;28351;51.480;5.706;2023-04-24T02:14:51;9.40;99.90
42715;DHT22;28351;51.480;5.706;2023-04-24T02:17:17;9.40;99.90
42715;DHT22;28351;51.480;5.706;2023-04-24T02:19:44;9.40;99.90
42715;DHT22;28351;51.480;5.706;2023-04-24T02:22:10;9.40;99.90
42715;DHT22;28351;51.480;5.706;2023-04-24T02:24:36;9.40;99.90
42715;DHT22;28351;51.480;5.706;2023-04-24T02:27:04;9.40;99.90
42715;DHT22;28351;51.480;5.706;2023-04-24T02:29:31;9.40;99.90
42715;DHT22;28351;51.480;5.706;2023-04-24T02:31:56;9.30;99.90
42715;DHT22;28351;51.480;5.706;2023-04-24T02:34:22;9.40;99.90
42715;DHT22;28351;51.480;5.706;2023-04-24T02:36:48;9.30;99.90
42715;DHT22;28351;51.480;5.706;2023-04-24T02:39:14;9.40;99.90
42715;DHT22;28351;51.480;5.706;2023-04-24T02:41:42;9.40;99.90
42715;DHT22;28351;51.480;5.706;2023-04-24T02:44:08;9.40;99.90
42715;DHT22;28351;51.480;5.706;2023-04-24T02:46:33;9.40;99.90
42715;DHT22;28351;51.480;5.706;2023-04-24T02:48:59;9.50;99.90
42715;DHT22;28351;51.480;5.706;2023-04-24T02:51:25;9.40;99.90
42715;DHT22;28351;51.480;5.706;2023-04-24T02:53:50;9.40;99.90
42715;DHT22;28351;51.480;5.706;2023-04-24T02:56:16;9.50;99.90
42715;DHT22;28351;51.480;5.706;2023-04-24T02:58:44;9.40;99.90
42715;DHT22;28351;51.480;5.706;2023-04-24T03:01:09;9.40;99.90
42715;DHT22;28351;51.480;5.706;2023-04-24T03:03:36;9.50;99.90
42715;DHT22;28351;51.480;5.706;2023-04-24T03:06:01;9.50;99.90
42715;DHT22;28351;51.480;5.706;2023-04-24T03:08:27;9.50;99.90
42715;DHT22;28351;51.480;5.706;2023-04-24T03:10:53;9.50;99.90
42715;DHT22;28351;51.480;5.706;2023-04-24T03:13:18;9.50;99.90
42715;DHT22;28351;51.480;5.706;2023-04-24T03:15:44;9.50;99.90
42715;DHT22;28351;51.480;5.706;2023-04-24T03:18:10;9.50;99.90
42715;DHT22;28351;51.480;5.706;2023-04-24T03:20:36;9.50;99.90
42715;DHT22;28351;51.480;5.706;2023-04-24T03:23:03;9.50;99.90
42715;DHT22;28351;51.480;5.706;2023-04-24T03:25:28;9.50;99.90
42715;DHT22;28351;51.480;5.706;2023-04-24T03:27:54;9.50;99.90
42715;DHT22;28351;51.480;5.706;2023-04-24T03:30:20;9.50;99.90
42715;DHT22;28351;51.480;5.706;2023-04-24T03:32:46;9.50;99.90
42715;DHT22;28351;51.480;5.706;2023-04-24T03:35:11;9.50;99.90
42715;DHT22;28351;51.480;5.706;2023-04-24T03:37:37;9.50;99.90
42715;DHT22;28351;51.480;5.706;2023-04-24T03:40:03;9.60;99.90
42715;DHT22;28351;51.480;5.706;2023-04-24T03:42:28;9.50;99.90
42715;DHT22;28351;51.480;5.706;2023-04-24T03:44:54;9.40;99.90
42715;DHT22;28351;51.480;5.706;2023-04-24T03:47:19;9.40;99.90
42715;DHT22;28351;51.480;5.706;2023-04-24T03:49:45;9.40;99.90
42715;DHT22;28351;51.480;5.706;2023-04-24T03:52:11;9.40;99.90
42715;DHT22;28351;51.480;5.706;2023-04-24T03:54:36;9.40;99.90
42715;DHT22;28351;51.480;5.706;2023-04-24T03:57:02;9.40;99.90
42715;DHT22;28351;51.480;5.706;2023-04-24T03:59:28;9.40;99.90
42715;DHT22;28351;51.480;5.706;2023-04-24T04:01:54;9.40;99.90
42715;DHT22;28351;51.480;5.706;2023-04-24T04:07:07;9.40;99.90
42715;DHT22;28351;51.480;5.706;2023-04-24T04:12:29;9.40;99.90
42715;DHT22;28351;51.480;5.706;2023-04-24T04:15:10;9.40;99.90
42715;DHT22;28351;51.480;5.706;2023-04-24T04:17:36;9.40;99.90
42715;DHT22;28351;51.480;5.706;2023-04-24T04:20:03;9.40;99.90
42715;DHT22;28351;51.480;5.706;2023-04-24T04:22:34;9.30;99.90
42715;DHT22;28351;51.480;5.706;2023-04-24T04:25:03;9.20;99.90
42715;DHT22;28351;51.480;5.706;2023-04-24T04:27:30;9.10;99.90
42715;DHT22;28351;51.480;5.706;2023-04-24T04:30:03;9.10;99.90
42715;DHT22;28351;51.480;5.706;2023-04-24T04:32:33;9.10;99.90
42715;DHT22;28351;51.480;5.706;2023-04-24T04:35:00;9.00;99.90
42715;DHT22;28351;51.480;5.706;2023-04-24T04:37:43;8.90;99.90
42715;DHT22;28351;51.480;5.706;2023-04-24T04:40:09;8.90;99.90
42715;DHT22;28351;51.480;5.706;2023-04-24T04:42:37;8.90;99.90
42715;DHT22;28351;51.480;5.706;2023-04-24T04:45:06;8.90;99.90
42715;DHT22;28351;51.480;5.706;2023-04-24T04:47:34;8.90;99.90
42715;DHT22;28351;51.480;5.706;2023-04-24T04:50:00;8.90;99.90
42715;DHT22;28351;51.480;5.706;2023-04-24T04:52:29;8.90;99.90
42715;DHT22;28351;51.480;5.706;2023-04-24T04:54:55;8.90;99.90
42715;DHT22;28351;51.480;5.706;2023-04-24T04:57:20;8.90;99.90
42715;DHT22;28351;51.480;5.706;2023-04-24T04:59:47;8.80;99.90
42715;DHT22;28351;51.480;5.706;2023-04-24T05:02:12;8.80;99.90
42715;DHT22;28351;51.480;5.706;2023-04-24T05:04:38;8.80;99.90
42715;DHT22;28351;51.480;5.706;2023-04-24T05:07:06;8.80;99.90
42715;DHT22;28351;51.480;5.706;2023-04-24T05:09:32;8.80;99.90
42715;DHT22;28351;51.480;5.706;2023-04-24T05:11:58;8.80;99.90
42715;DHT22;28351;51.480;5.706;2023-04-24T05:14:23;8.80;99.90
42715;DHT22;28351;51.480;5.706;2023-04-24T05:16:49;8.70;99.90
42715;DHT22;28351;51.480;5.706;2023-04-24T05:19:15;8.80;99.90
42715;DHT22;28351;51.480;5.706;2023-04-24T05:21:43;8.70;99.90
42715;DHT22;28351;51.480;5.706;2023-04-24T05:24:17;8.70;99.90
42715;DHT22;28351;51.480;5.706;2023-04-24T05:26:43;8.80;99.90
42715;DHT22;28351;51.480;5.706;2023-04-24T05:29:09;8.80;99.90
42715;DHT22;28351;51.480;5.706;2023-04-24T05:31:34;8.80;99.90
42715;DHT22;28351;51.480;5.706;2023-04-24T05:34:00;8.80;99.90
42715;DHT22;28351;51.480;5.706;2023-04-24T05:36:26;8.80;99.90
42715;DHT22;28351;51.480;5.706;2023-04-24T05:38:52;8.90;99.90
42715;DHT22;28351;51.480;5.706;2023-04-24T05:41:18;9.00;99.90
42715;DHT22;28351;51.480;5.706;2023-04-24T05:43:43;8.80;99.90
42715;DHT22;28351;51.480;5.706;2023-04-24T05:46:09;8.90;99.90
42715;DHT22;28351;51.480;5.706;2023-04-24T05:48:34;8.80;99.90
42715;DHT22;28351;51.480;5.706;2023-04-24T05:51:00;8.90;99.90
42715;DHT22;28351;51.480;5.706;2023-04-24T05:53:29;8.80;99.90
42715;DHT22;28351;51.480;5.706;2023-04-24T05:55:55;8.80;99.90
42715;DHT22;28351;51.480;5.706;2023-04-24T05:58:21;8.70;99.90
42715;DHT22;28351;51.480;5.706;2023-04-24T06:00:47;8.70;99.90
42715;DHT22;28351;51.480;5.706;2023-04-24T06:03:14;8.80;99.90
42715;DHT22;28351;51.480;5.706;2023-04-24T06:05:40;8.70;99.90
42715;DHT22;28351;51.480;5.706;2023-04-24T06:08:05;8.70;99.90
42715;DHT22;28351;51.480;5.706;2023-04-24T06:10:31;8.60;99.90
42715;DHT22;28351;51.480;5.706;2023-04-24T06:12:57;8.60;99.90
42715;DHT22;28351;51.480;5.706;2023-04-24T06:15:29;8.60;99.90
42715;DHT22;28351;51.480;5.706;2023-04-24T06:17:56;8.50;99.90
42715;DHT22;28351;51.480;5.706;2023-04-24T06:20:22;8.50;99.90
42715;DHT22;28351;51.480;5.706;2023-04-24T06:22:47;8.40;99.90
42715;DHT22;28351;51.480;5.706;2023-04-24T06:25:16;8.40;99.90
42715;DHT22;28351;51.480;5.706;2023-04-24T06:27:43;8.50;99.90
42715;DHT22;28351;51.480;5.706;2023-04-24T06:30:09;8.50;99.90
42715;DHT22;28351;51.480;5.706;2023-04-24T06:32:35;8.50;99.90
42715;DHT22;28351;51.480;5.706;2023-04-24T06:35:00;8.50;99.90
42715;DHT22;28351;51.480;5.706;2023-04-24T06:37:26;8.50;99.90
42715;DHT22;28351;51.480;5.706;2023-04-24T06:39:52;8.50;99.90
42715;DHT22;28351;51.480;5.706;2023-04-24T06:42:17;8.50;99.90
42715;DHT22;28351;51.480;5.706;2023-04-24T06:44:43;8.50;99.90
42715;DHT22;28351;51.480;5.706;2023-04-24T06:47:10;8.60;99.90
42715;DHT22;28351;51.480;5.706;2023-04-24T06:49:36;8.60;99.90
42715;DHT22;28351;51.480;5.706;2023-04-24T06:52:02;8.70;99.90
42715;DHT22;28351;51.480;5.706;2023-04-24T06:54:29;8.70;99.90
42715;DHT22;28351;51.480;5.706;2023-04-24T06:56:55;8.70;99.90
42715;DHT22;28351;51.480;5.706;2023-04-24T06:59:20;8.70;99.90
42715;DHT22;28351;51.480;5.706;2023-04-24T07:01:46;8.80;99.90
42715;DHT22;28351;51.480;5.706;2023-04-24T07:04:12;8.90;99.90
42715;DHT22;28351;51.480;5.706;2023-04-24T07:06:38;8.80;99.90
42715;DHT22;28351;51.480;5.706;2023-04-24T07:09:04;8.80;99.90
42715;DHT22;28351;51.480;5.706;2023-04-24T07:11:30;8.80;99.90
42715;DHT22;28351;51.480;5.706;2023-04-24T07:13:55;8.80;99.90
42715;DHT22;28351;51.480;5.706;2023-04-24T07:16:24;8.70;99.90
42715;DHT22;28351;51.480;5.706;2023-04-24T07:18:49;8.70;99.90
42715;DHT22;28351;51.480;5.706;2023-04-24T07:21:15;8.70;99.90
42715;DHT22;28351;51.480;5.706;2023-04-24T07:23:41;8.70;99.90
42715;DHT22;28351;51.480;5.706;2023-04-24T07:26:06;8.70;99.90
42715;DHT22;28351;51.480;5.706;2023-04-24T07:28:32;8.70;99.90
42715;DHT22;28351;51.480;5.706;2023-04-24T07:30:58;8.70;99.90
42715;DHT22;28351;51.480;5.706;2023-04-24T07:33:25;8.60;99.90
42715;DHT22;28351;51.480;5.706;2023-04-24T07:35:51;8.60;99.90
42715;DHT22;28351;51.480;5.706;2023-04-24T07:38:17;8.60;99.90
42715;DHT22;28351;51.480;5.706;2023-04-24T07:40:46;8.50;99.90
42715;DHT22;28351;51.480;5.706;2023-04-24T07:43:12;8.50;99.90
42715;DHT22;28351;51.480;5.706;2023-04-24T07:45:38;8.50;99.90
42715;DHT22;28351;51.480;5.706;2023-04-24T07:48:05;8.40;99.90
42715;DHT22;28351;51.480;5.706;2023-04-24T07:50:30;8.50;99.90
42715;DHT22;28351;51.480;5.706;2023-04-24T07:52:56;8.40;99.90
42715;DHT22;28351;51.480;5.706;2023-04-24T07:55:21;8.40;99.90
42715;DHT22;28351;51.480;5.706;2023-04-24T07:57:47;8.40;99.90
42715;DHT22;28351;51.480;5.706;2023-04-24T08:00:13;8.40;99.90
42715;DHT22;28351;51.480;5.706;2023-04-24T08:02:39;8.40;99.90
42715;DHT22;28351;51.480;5.706;2023-04-24T08:05:05;8.40;99.90
42715;DHT22;28351;51.480;5.706;2023-04-24T08:07:31;8.40;99.90
42715;DHT22;28351;51.480;5.706;2023-04-24T08:09:57;8.40;99.90
42715;DHT22;28351;51.480;5.706;2023-04-24T08:12:22;8.40;99.90
42715;DHT22;28351;51.480;5.706;2023-04-24T08:14:48;8.40;99.90
42715;DHT22;28351;51.480;5.706;2023-04-24T08:17:23;8.30;99.90
42715;DHT22;28351;51.480;5.706;2023-04-24T08:19:49;8.30;99.90
42715;DHT22;28351;51.480;5.706;2023-04-24T08:22:16;8.40;99.90
42715;DHT22;28351;51.480;5.706;2023-04-24T08:24:42;8.40;99.90
42715;DHT22;28351;51.480;5.706;2023-04-24T08:27:19;8.40;99.90
42715;DHT22;28351;51.480;5.706;2023-04-24T08:29:45;8.40;99.90
42715;DHT22;28351;51.480;5.706;2023-04-24T08:32:19;8.40;99.90
42715;DHT22;28351;51.480;5.706;2023-04-24T08:34:45;8.50;99.90
42715;DHT22;28351;51.480;5.706;2023-04-24T08:37:11;8.50;99.90
42715;DHT22;28351;51.480;5.706;2023-04-24T08:39:37;8.50;99.90
42715;DHT22;28351;51.480;5.706;2023-04-24T08:42:04;8.50;99.90
42715;DHT22;28351;51.480;5.706;2023-04-24T08:44:33;8.60;99.90
42715;DHT22;28351;51.480;5.706;2023-04-24T08:47:01;8.60;99.90
42715;DHT22;28351;51.480;5.706;2023-04-24T08:49:28;8.70;99.90
42715;DHT22;28351;51.480;5.706;2023-04-24T08:51:54;8.70;99.90
42715;DHT22;28351;51.480;5.706;2023-04-24T08:54:31;8.60;99.90
42715;DHT22;28351;51.480;5.706;2023-04-24T08:57:01;8.60;99.90
42715;DHT22;28351;51.480;5.706;2023-04-24T08:59:30;8.70;99.90
42715;DHT22;28351;51.480;5.706;2023-04-24T09:01:57;8.80;99.90
42715;DHT22;28351;51.480;5.706;2023-04-24T09:04:23;8.80;99.90
42715;DHT22;28351;51.480;5.706;2023-04-24T09:06:51;8.80;99.90
42715;DHT22;28351;51.480;5.706;2023-04-24T09:09:17;8.80;99.90
42715;DHT22;28351;51.480;5.706;2023-04-24T09:11:46;8.90;99.90
42715;DHT22;28351;51.480;5.706;2023-04-24T09:14:12;8.90;99.90
42715;DHT22;28351;51.480;5.706;2023-04-24T09:16:38;9.10;99.90
42715;DHT22;28351;51.480;5.706;2023-04-24T09:19:04;9.20;99.90
42715;DHT22;28351;51.480;5.706;2023-04-24T09:21:34;9.30;99.90
42715;DHT22;28351;51.480;5.706;2023-04-24T09:24:01;9.40;99.90
42715;DHT22;28351;51.480;5.706;2023-04-24T09:26:32;9.40;99.90
42715;DHT22;28351;51.480;5.706;2023-04-24T09:28:58;9.30;99.90
42715;DHT22;28351;51.480;5.706;2023-04-24T09:31:27;9.30;99.90
42715;DHT22;28351;51.480;5.706;2023-04-24T09:34:23;9.20;99.90
42715;DHT22;28351;51.480;5.706;2023-04-24T09:36:49;9.00;99.90
42715;DHT22;28351;51.480;5.706;2023-04-24T09:39:19;9.00;99.90
42715;DHT22;28351;51.480;5.706;2023-04-24T09:41:55;9.00;99.90
42715;DHT22;28351;51.480;5.706;2023-04-24T09:44:26;9.10;99.90
42715;DHT22;28351;51.480;5.706;2023-04-24T09:46:56;9.20;99.90
42715;DHT22;28351;51.480;5.706;2023-04-24T09:49:27;9.50;99.90
42715;DHT22;28351;51.480;5.706;2023-04-24T09:52:03;9.90;99.90
42715;DHT22;28351;51.480;5.706;2023-04-24T09:54:54;10.20;99.90
42715;DHT22;28351;51.480;5.706;2023-04-24T09:57:20;10.00;99.90
42715;DHT22;28351;51.480;5.706;2023-04-24T09:59:46;9.80;99.90
42715;DHT22;28351;51.480;5.706;2023-04-24T10:02:19;9.60;99.90
42715;DHT22;28351;51.480;5.706;2023-04-24T10:04:55;9.40;99.90
42715;DHT22;28351;51.480;5.706;2023-04-24T10:07:21;9.30;99.90
42715;DHT22;28351;51.480;5.706;2023-04-24T10:09:47;9.20;99.90
42715;DHT22;28351;51.480;5.706;2023-04-24T10:12:29;9.10;99.90
42715;DHT22;28351;51.480;5.706;2023-04-24T10:14:56;9.30;99.90
42715;DHT22;28351;51.480;5.706;2023-04-24T10:17:24;9.30;99.90
42715;DHT22;28351;51.480;5.706;2023-04-24T10:19:51;9.70;99.90
42715;DHT22;28351;51.480;5.706;2023-04-24T10:22:29;10.00;99.90
42715;DHT22;28351;51.480;5.706;2023-04-24T10:24:56;10.30;99.90
42715;DHT22;28351;51.480;5.706;2023-04-24T10:27:23;10.60;99.90
42715;DHT22;28351;51.480;5.706;2023-04-24T10:29:51;10.90;99.90
42715;DHT22;28351;51.480;5.706;2023-04-24T10:32:18;11.00;99.90
42715;DHT22;28351;51.480;5.706;2023-04-24T10:34:43;11.10;99.90
42715;DHT22;28351;51.480;5.706;2023-04-24T10:37:10;11.20;99.90
42715;DHT22;28351;51.480;5.706;2023-04-24T10:39:35;11.10;99.90
42715;DHT22;28351;51.480;5.706;2023-04-24T10:42:14;10.80;99.90
42715;DHT22;28351;51.480;5.706;2023-04-24T10:44:40;10.50;99.90
42715;DHT22;28351;51.480;5.706;2023-04-24T10:47:12;10.20;99.90
42715;DHT22;28351;51.480;5.706;2023-04-24T10:49:38;10.10;99.90
42715;DHT22;28351;51.480;5.706;2023-04-24T10:52:04;9.90;99.90
42715;DHT22;28351;51.480;5.706;2023-04-24T10:54:36;9.80;99.90
42715;DHT22;28351;51.480;5.706;2023-04-24T10:59:44;9.80;99.90
42715;DHT22;28351;51.480;5.706;2023-04-24T11:02:10;10.00;99.90
42715;DHT22;28351;51.480;5.706;2023-04-24T11:04:36;10.10;99.90
42715;DHT22;28351;51.480;5.706;2023-04-24T11:07:04;10.40;99.90
42715;DHT22;28351;51.480;5.706;2023-04-24T11:09:31;10.50;99.90
42715;DHT22;28351;51.480;5.706;2023-04-24T11:12:07;10.50;99.90
42715;DHT22;28351;51.480;5.706;2023-04-24T11:17:38;10.50;99.90
42715;DHT22;28351;51.480;5.706;2023-04-24T11:20:07;10.50;99.90
42715;DHT22;28351;51.480;5.706;2023-04-24T11:22:35;10.60;99.90
42715;DHT22;28351;51.480;5.706;2023-04-24T11:25:02;10.70;99.90
42715;DHT22;28351;51.480;5.706;2023-04-24T11:27:42;10.70;99.90
42715;DHT22;28351;51.480;5.706;2023-04-24T11:30:08;10.80;99.90
42715;DHT22;28351;51.480;5.706;2023-04-24T11:32:37;10.60;99.90
42715;DHT22;28351;51.480;5.706;2023-04-24T11:35:19;10.50;99.90
42715;DHT22;28351;51.480;5.706;2023-04-24T11:37:55;10.40;99.90
42715;DHT22;28351;51.480;5.706;2023-04-24T11:40:22;10.10;99.90
42715;DHT22;28351;51.480;5.706;2023-04-24T11:42:49;10.00;99.90
42715;DHT22;28351;51.480;5.706;2023-04-24T11:45:23;9.60;99.90
42715;DHT22;28351;51.480;5.706;2023-04-24T11:47:49;9.30;99.90
42715;DHT22;28351;51.480;5.706;2023-04-24T11:50:21;9.10;99.90
42715;DHT22;28351;51.480;5.706;2023-04-24T11:52:48;9.10;99.90
42715;DHT22;28351;51.480;5.706;2023-04-24T11:57:40;9.00;99.90
42715;DHT22;28351;51.480;5.706;2023-04-24T12:00:17;9.10;99.90
42715;DHT22;28351;51.480;5.706;2023-04-24T12:03:06;9.20;99.90
42715;DHT22;28351;51.480;5.706;2023-04-24T12:05:32;9.60;99.90
42715;DHT22;28351;51.480;5.706;2023-04-24T12:07:59;10.00;99.90
42715;DHT22;28351;51.480;5.706;2023-04-24T12:10:27;10.20;99.90
42715;DHT22;28351;51.480;5.706;2023-04-24T12:12:53;10.30;99.90
42715;DHT22;28351;51.480;5.706;2023-04-24T12:15:20;10.30;99.90
42715;DHT22;28351;51.480;5.706;2023-04-24T12:17:47;10.30;99.90
42715;DHT22;28351;51.480;5.706;2023-04-24T12:20:14;10.30;99.90
42715;DHT22;28351;51.480;5.706;2023-04-24T12:23:12;10.40;99.90
42715;DHT22;28351;51.480;5.706;2023-04-24T12:25:38;10.30;99.90
42715;DHT22;28351;51.480;5.706;2023-04-24T12:30:41;10.20;99.90
42715;DHT22;28351;51.480;5.706;2023-04-24T12:33:06;10.10;99.90
42715;DHT22;28351;51.480;5.706;2023-04-24T12:35:36;10.30;99.90
42715;DHT22;28351;51.480;5.706;2023-04-24T12:38:09;10.50;99.90
42715;DHT22;28351;51.480;5.706;2023-04-24T12:40:35;10.90;99.90
42715;DHT22;28351;51.480;5.706;2023-04-24T12:43:01;11.10;99.90
42715;DHT22;28351;51.480;5.706;2023-04-24T12:45:27;11.10;99.90
42715;DHT22;28351;51.480;5.706;2023-04-24T12:47:53;11.00;99.90
42715;DHT22;28351;51.480;5.706;2023-04-24T12:50:19;10.90;99.90
42715;DHT22;28351;51.480;5.706;2023-04-24T12:52:48;11.10;99.90
42715;DHT22;28351;51.480;5.706;2023-04-24T12:55:19;11.30;99.90
42715;DHT22;28351;51.480;5.706;2023-04-24T12:57:45;11.50;99.90
42715;DHT22;28351;51.480;5.706;2023-04-24T13:00:10;11.60;99.90
42715;DHT22;28351;51.480;5.706;2023-04-24T13:02:36;11.80;99.90
42715;DHT22;28351;51.480;5.706;2023-04-24T13:05:02;11.90;99.90
42715;DHT22;28351;51.480;5.706;2023-04-24T13:07:28;12.00;99.90
42715;DHT22;28351;51.480;5.706;2023-04-24T13:09:55;11.90;99.90
42715;DHT22;28351;51.480;5.706;2023-04-24T13:12:21;11.90;99.90
42715;DHT22;28351;51.480;5.706;2023-04-24T13:14:46;12.30;99.90
42715;DHT22;28351;51.480;5.706;2023-04-24T13:17:12;12.00;99.90
42715;DHT22;28351;51.480;5.706;2023-04-24T13:19:42;11.70;99.90
42715;DHT22;28351;51.480;5.706;2023-04-24T13:22:12;11.80;99.90
42715;DHT22;28351;51.480;5.706;2023-04-24T13:24:38;11.50;99.90
42715;DHT22;28351;51.480;5.706;2023-04-24T13:27:06;11.30;99.90
42715;DHT22;28351;51.480;5.706;2023-04-24T13:29:32;11.20;99.90
42715;DHT22;28351;51.480;5.706;2023-04-24T13:31:58;11.10;99.90
42715;DHT22;28351;51.480;5.706;2023-04-24T13:34:24;10.90;99.90
42715;DHT22;28351;51.480;5.706;2023-04-24T13:36:52;10.80;99.90
42715;DHT22;28351;51.480;5.706;2023-04-24T13:39:17;10.70;99.90
42715;DHT22;28351;51.480;5.706;2023-04-24T13:41:43;10.60;99.90
42715;DHT22;28351;51.480;5.706;2023-04-24T13:44:09;10.70;99.90
42715;DHT22;28351;51.480;5.706;2023-04-24T13:46:35;11.00;99.90
42715;DHT22;28351;51.480;5.706;2023-04-24T13:49:02;10.80;99.90
42715;DHT22;28351;51.480;5.706;2023-04-24T13:51:29;10.60;99.90
42715;DHT22;28351;51.480;5.706;2023-04-24T13:53:54;10.20;99.90
42715;DHT22;28351;51.480;5.706;2023-04-24T13:56:20;10.10;99.90
42715;DHT22;28351;51.480;5.706;2023-04-24T13:58:47;10.00;99.90
42715;DHT22;28351;51.480;5.706;2023-04-24T14:01:14;9.90;99.90
42715;DHT22;28351;51.480;5.706;2023-04-24T14:03:43;10.10;99.90
42715;DHT22;28351;51.480;5.706;2023-04-24T14:06:09;10.70;99.90
42715;DHT22;28351;51.480;5.706;2023-04-24T14:08:35;11.40;99.90
42715;DHT22;28351;51.480;5.706;2023-04-24T14:11:00;11.80;99.90
42715;DHT22;28351;51.480;5.706;2023-04-24T14:13:26;12.40;99.90
42715;DHT22;28351;51.480;5.706;2023-04-24T14:15:53;12.70;99.90
42715;DHT22;28351;51.480;5.706;2023-04-24T14:18:18;12.40;99.90
42715;DHT22;28351;51.480;5.706;2023-04-24T14:20:44;12.20;99.90
42715;DHT22;28351;51.480;5.706;2023-04-24T14:23:10;11.60;99.90
42715;DHT22;28351;51.480;5.706;2023-04-24T14:25:36;12.10;99.90
42715;DHT22;28351;51.480;5.706;2023-04-24T14:28:02;12.40;99.90
42715;DHT22;28351;51.480;5.706;2023-04-24T14:30:27;12.10;99.90
42715;DHT22;28351;51.480;5.706;2023-04-24T14:32:53;12.00;99.90
42715;DHT22;28351;51.480;5.706;2023-04-24T14:35:19;11.80;99.90
42715;DHT22;28351;51.480;5.706;2023-04-24T14:37:44;11.60;99.90
42715;DHT22;28351;51.480;5.706;2023-04-24T14:40:10;11.10;99.90
42715;DHT22;28351;51.480;5.706;2023-04-24T14:42:36;10.60;99.90
42715;DHT22;28351;51.480;5.706;2023-04-24T14:45:02;10.20;99.90
42715;DHT22;28351;51.480;5.706;2023-04-24T14:47:28;10.10;99.90
42715;DHT22;28351;51.480;5.706;2023-04-24T14:49:54;10.30;99.90
42715;DHT22;28351;51.480;5.706;2023-04-24T14:52:23;10.40;99.90
42715;DHT22;28351;51.480;5.706;2023-04-24T14:54:49;10.60;99.90
42715;DHT22;28351;51.480;5.706;2023-04-24T14:57:14;10.70;99.90
42715;DHT22;28351;51.480;5.706;2023-04-24T14:59:40;11.10;99.90
42715;DHT22;28351;51.480;5.706;2023-04-24T15:02:06;11.00;99.90
42715;DHT22;28351;51.480;5.706;2023-04-24T15:04:31;11.60;99.90
42715;DHT22;28351;51.480;5.706;2023-04-24T15:06:57;13.30;99.90
42715;DHT22;28351;51.480;5.706;2023-04-24T15:09:24;14.40;99.90
42715;DHT22;28351;51.480;5.706;2023-04-24T15:11:53;13.90;99.90
42715;DHT22;28351;51.480;5.706;2023-04-24T15:14:18;13.40;99.90
42715;DHT22;28351;51.480;5.706;2023-04-24T15:16:44;14.60;99.90
42715;DHT22;28351;51.480;5.706;2023-04-24T15:19:13;15.50;99.20
42715;DHT22;28351;51.480;5.706;2023-04-24T15:21:38;16.30;99.40
42715;DHT22;28351;51.480;5.706;2023-04-24T15:24:07;16.80;97.70
42715;DHT22;28351;51.480;5.706;2023-04-24T15:26:32;17.60;97.40
42715;DHT22;28351;51.480;5.706;2023-04-24T15:28:58;16.20;96.50
42715;DHT22;28351;51.480;5.706;2023-04-24T15:31:24;15.90;97.50
42715;DHT22;28351;51.480;5.706;2023-04-24T15:33:50;16.20;97.40
42715;DHT22;28351;51.480;5.706;2023-04-24T15:36:16;16.40;98.00
42715;DHT22;28351;51.480;5.706;2023-04-24T15:38:45;16.30;96.90
42715;DHT22;28351;51.480;5.706;2023-04-24T15:41:11;16.00;97.20
42715;DHT22;28351;51.480;5.706;2023-04-24T15:43:37;15.90;97.50
42715;DHT22;28351;51.480;5.706;2023-04-24T15:46:04;15.90;98.40
42715;DHT22;28351;51.480;5.706;2023-04-24T15:48:30;15.90;97.60
42715;DHT22;28351;51.480;5.706;2023-04-24T15:50:56;14.50;99.90
42715;DHT22;28351;51.480;5.706;2023-04-24T15:53:22;13.40;99.90
42715;DHT22;28351;51.480;5.706;2023-04-24T15:55:48;12.90;99.90